sensor_id;sensor_type;location;lat;lon;timestamp;pressure;altitude;pressure_sealevel;temperature;humidity
75923;BME280;64602;47.542;19.090;2022-12-17T00:05:05;99784.03;;;1.16;89.96
75923;BME280;64602;47.542;19.090;2022-12-17T00:10:27;99787.13;;;1.13;90.24
75923;BME280;64602;47.542;19.090;2022-12-17T00:15:51;99785.28;;;1.00;90.33
75923;BME280;64602;47.542;19.090;2022-12-17T00:21:12;99768.41;;;0.86;90.39
75923;BME280;64602;47.542;19.090;2022-12-17T00:26:33;99779.28;;;0.84;90.34
75923;BME280;64602;47.542;19.090;2022-12-17T00:31:53;99788.94;;;0.79;90.59
75923;BME280;64602;47.542;19.090;2022-12-17T00:37:14;99806.81;;;0.78;90.46
75923;BME280;64602;47.542;19.090;2022-12-17T00:42:34;99792.81;;;0.70;90.49
75923;BME280;64602;47.542;19.090;2022-12-17T00:47:57;99744.13;;;0.68;90.51
75923;BME280;64602;47.542;19.090;2022-12-17T00:53:17;99755.44;;;0.70;90.26
75923;BME280;64602;47.542;19.090;2022-12-17T00:58:39;99765.03;;;0.51;90.24
75923;BME280;64602;47.542;19.090;2022-12-17T01:03:59;99788.03;;;0.45;90.15
75923;BME280;64602;47.542;19.090;2022-12-17T01:09:20;99823.22;;;0.62;90.06
75923;BME280;64602;47.542;19.090;2022-12-17T01:14:40;99833.87;;;0.62;89.64
75923;BME280;64602;47.542;19.090;2022-12-17T01:20:01;99847.69;;;0.66;89.41
75923;BME280;64602;47.542;19.090;2022-12-17T01:25:22;99880.31;;;0.68;89.22
75923;BME280;64602;47.542;19.090;2022-12-17T01:30:44;99832.84;;;0.63;89.10
75923;BME280;64602;47.542;19.090;2022-12-17T01:36:05;99883.44;;;0.71;88.97
75923;BME280;64602;47.542;19.090;2022-12-17T01:41:26;99890.00;;;0.69;88.75
75923;BME280;64602;47.542;19.090;2022-12-17T01:46:49;99908.87;;;0.67;88.73
75923;BME280;64602;47.542;19.090;2022-12-17T01:52:11;99902.69;;;0.60;88.69
75923;BME280;64602;47.542;19.090;2022-12-17T01:57:33;99904.91;;;0.50;88.88
75923;BME280;64602;47.542;19.090;2022-12-17T02:02:56;99895.69;;;0.52;88.99
75923;BME280;64602;47.542;19.090;2022-12-17T02:14:02;99900.97;;;0.39;88.73
75923;BME280;64602;47.542;19.090;2022-12-17T02:19:44;99904.44;;;0.39;88.85
75923;BME280;64602;47.542;19.090;2022-12-17T02:26:01;99926.66;;;0.47;88.91
75923;BME280;64602;47.542;19.090;2022-12-17T02:31:00;99920.09;;;0.49;88.83
75923;BME280;64602;47.542;19.090;2022-12-17T02:36:21;99912.06;;;0.42;88.52
75923;BME280;64602;47.542;19.090;2022-12-17T02:41:53;99890.66;;;0.36;88.66
75923;BME280;64602;47.542;19.090;2022-12-17T02:47:17;99899.12;;;0.39;88.39
75923;BME280;64602;47.542;19.090;2022-12-17T02:52:41;99916.19;;;0.45;88.22
75923;BME280;64602;47.542;19.090;2022-12-17T02:58:04;99902.78;;;0.32;87.94
75923;BME280;64602;47.542;19.090;2022-12-17T03:03:24;99903.78;;;0.31;87.96
75923;BME280;64602;47.542;19.090;2022-12-17T03:08:51;99912.59;;;0.25;87.86
75923;BME280;64602;47.542;19.090;2022-12-17T03:14:11;99942.34;;;0.28;88.01
75923;BME280;64602;47.542;19.090;2022-12-17T03:19:32;99952.69;;;0.38;87.98
75923;BME280;64602;47.542;19.090;2022-12-17T03:24:52;99970.37;;;0.39;87.93
75923;BME280;64602;47.542;19.090;2022-12-17T03:30:12;99944.44;;;0.33;87.69
75923;BME280;64602;47.542;19.090;2022-12-17T03:35:37;99946.47;;;0.31;87.38
75923;BME280;64602;47.542;19.090;2022-12-17T03:40:58;99954.50;;;0.31;86.80
75923;BME280;64602;47.542;19.090;2022-12-17T03:46:18;99947.28;;;0.25;86.71
75923;BME280;64602;47.542;19.090;2022-12-17T03:51:39;99965.09;;;0.17;86.12
75923;BME280;64602;47.542;19.090;2022-12-17T03:56:59;99978.63;;;0.16;85.98
75923;BME280;64602;47.542;19.090;2022-12-17T04:02:19;99962.13;;;0.06;85.91
75923;BME280;64602;47.542;19.090;2022-12-17T04:07:40;99976.69;;;0.03;85.23
75923;BME280;64602;47.542;19.090;2022-12-17T04:13:01;99984.88;;;0.02;84.85
75923;BME280;64602;47.542;19.090;2022-12-17T04:18:22;99957.41;;;-0.20;85.02
75923;BME280;64602;47.542;19.090;2022-12-17T04:23:42;99965.78;;;-0.24;84.98
75923;BME280;64602;47.542;19.090;2022-12-17T04:29:02;99961.22;;;-0.30;84.78
75923;BME280;64602;47.542;19.090;2022-12-17T04:34:23;99967.34;;;-0.29;84.81
75923;BME280;64602;47.542;19.090;2022-12-17T04:39:43;99963.53;;;-0.48;84.90
75923;BME280;64602;47.542;19.090;2022-12-17T04:45:04;99990.34;;;-0.50;84.83
75923;BME280;64602;47.542;19.090;2022-12-17T04:50:38;100008.62;;;-0.47;85.09
75923;BME280;64602;47.542;19.090;2022-12-17T04:55:59;100004.06;;;-0.53;84.75
75923;BME280;64602;47.542;19.090;2022-12-17T05:01:19;100017.19;;;-0.51;84.12
75923;BME280;64602;47.542;19.090;2022-12-17T05:06:40;100022.91;;;-0.54;84.04
75923;BME280;64602;47.542;19.090;2022-12-17T05:12:01;100042.84;;;-0.50;84.15
75923;BME280;64602;47.542;19.090;2022-12-17T05:17:22;100063.69;;;-0.54;83.77
75923;BME280;64602;47.542;19.090;2022-12-17T05:22:43;100058.94;;;-0.58;83.47
75923;BME280;64602;47.542;19.090;2022-12-17T05:28:04;100053.63;;;-0.73;83.11
75923;BME280;64602;47.542;19.090;2022-12-17T05:33:25;100042.97;;;-0.73;83.30
75923;BME280;64602;47.542;19.090;2022-12-17T05:38:48;100069.53;;;-0.65;82.75
75923;BME280;64602;47.542;19.090;2022-12-17T05:44:09;100089.84;;;-0.64;82.62
75923;BME280;64602;47.542;19.090;2022-12-17T05:49:29;100122.63;;;-0.63;82.27
75923;BME280;64602;47.542;19.090;2022-12-17T05:54:50;100113.81;;;-0.64;82.38
75923;BME280;64602;47.542;19.090;2022-12-17T06:00:11;100102.78;;;-0.76;82.14
75923;BME280;64602;47.542;19.090;2022-12-17T06:05:32;100104.53;;;-0.83;82.07
75923;BME280;64602;47.542;19.090;2022-12-17T06:10:53;100123.75;;;-0.88;82.17
75923;BME280;64602;47.542;19.090;2022-12-17T06:16:14;100140.19;;;-0.84;82.30
75923;BME280;64602;47.542;19.090;2022-12-17T06:21:34;100159.94;;;-0.78;82.14
75923;BME280;64602;47.542;19.090;2022-12-17T06:26:55;100168.16;;;-0.80;81.85
75923;BME280;64602;47.542;19.090;2022-12-17T06:32:16;100180.63;;;-0.80;81.96
75923;BME280;64602;47.542;19.090;2022-12-17T06:37:36;100191.47;;;-0.82;81.57
75923;BME280;64602;47.542;19.090;2022-12-17T06:42:57;100193.75;;;-0.79;81.55
75923;BME280;64602;47.542;19.090;2022-12-17T06:48:17;100198.06;;;-0.78;81.31
75923;BME280;64602;47.542;19.090;2022-12-17T06:53:38;100200.66;;;-0.84;80.81
75923;BME280;64602;47.542;19.090;2022-12-17T06:58:59;100204.78;;;-0.82;80.86
75923;BME280;64602;47.542;19.090;2022-12-17T07:04:20;100217.03;;;-0.73;80.29
75923;BME280;64602;47.542;19.090;2022-12-17T07:09:40;100230.03;;;-0.78;80.03
75923;BME280;64602;47.542;19.090;2022-12-17T07:15:01;100257.53;;;-0.77;79.72
75923;BME280;64602;47.542;19.090;2022-12-17T07:20:22;100257.06;;;-0.81;80.24
75923;BME280;64602;47.542;19.090;2022-12-17T07:25:43;100267.34;;;-0.78;79.57
75923;BME280;64602;47.542;19.090;2022-12-17T07:31:03;100274.63;;;-0.72;79.53
75923;BME280;64602;47.542;19.090;2022-12-17T07:36:24;100277.28;;;-0.72;79.16
75923;BME280;64602;47.542;19.090;2022-12-17T07:41:45;100289.16;;;-0.59;78.97
75923;BME280;64602;47.542;19.090;2022-12-17T07:47:05;100285.31;;;-0.57;78.32
75923;BME280;64602;47.542;19.090;2022-12-17T07:52:26;100314.38;;;-0.47;78.07
75923;BME280;64602;47.542;19.090;2022-12-17T07:57:46;100303.44;;;-0.52;77.70
75923;BME280;64602;47.542;19.090;2022-12-17T08:03:08;100291.75;;;-0.51;77.21
75923;BME280;64602;47.542;19.090;2022-12-17T08:08:29;100300.78;;;-0.37;77.14
75923;BME280;64602;47.542;19.090;2022-12-17T08:13:50;100319.44;;;-0.37;76.61
75923;BME280;64602;47.542;19.090;2022-12-17T08:19:21;100316.50;;;-0.28;76.18
75923;BME280;64602;47.542;19.090;2022-12-17T08:24:41;100350.53;;;-0.15;75.46
75923;BME280;64602;47.542;19.090;2022-12-17T08:30:02;100337.28;;;-0.08;75.44
75923;BME280;64602;47.542;19.090;2022-12-17T08:35:23;100354.12;;;0.07;75.47
75923;BME280;64602;47.542;19.090;2022-12-17T08:40:44;100359.19;;;0.02;74.72
75923;BME280;64602;47.542;19.090;2022-12-17T08:46:04;100370.72;;;0.17;74.18
75923;BME280;64602;47.542;19.090;2022-12-17T08:51:25;100385.16;;;0.74;71.97
75923;BME280;64602;47.542;19.090;2022-12-17T08:56:46;100375.56;;;0.80;72.06
75923;BME280;64602;47.542;19.090;2022-12-17T09:02:08;100398.81;;;1.01;71.59
75923;BME280;64602;47.542;19.090;2022-12-17T09:07:29;100404.81;;;1.03;70.77
75923;BME280;64602;47.542;19.090;2022-12-17T09:12:49;100396.50;;;0.76;71.93
75923;BME280;64602;47.542;19.090;2022-12-17T09:18:10;100387.16;;;0.36;72.76
75923;BME280;64602;47.542;19.090;2022-12-17T09:23:30;100398.09;;;0.41;73.24
75923;BME280;64602;47.542;19.090;2022-12-17T09:28:51;100380.91;;;0.29;72.98
75923;BME280;64602;47.542;19.090;2022-12-17T09:34:12;100416.63;;;0.42;72.96
75923;BME280;64602;47.542;19.090;2022-12-17T09:39:32;100409.69;;;0.48;72.64
75923;BME280;64602;47.542;19.090;2022-12-17T09:45:11;100393.78;;;0.40;72.22
75923;BME280;64602;47.542;19.090;2022-12-17T09:50:33;100395.16;;;0.51;71.67
75923;BME280;64602;47.542;19.090;2022-12-17T09:55:54;100409.94;;;0.83;70.72
75923;BME280;64602;47.542;19.090;2022-12-17T10:01:15;100408.47;;;1.02;69.57
75923;BME280;64602;47.542;19.090;2022-12-17T10:06:37;100433.72;;;3.91;61.64
75923;BME280;64602;47.542;19.090;2022-12-17T10:12:15;100433.53;;;2.43;63.63
75923;BME280;64602;47.542;19.090;2022-12-17T10:17:36;100451.16;;;1.10;68.63
75923;BME280;64602;47.542;19.090;2022-12-17T10:23:04;100462.25;;;0.77;69.83
75923;BME280;64602;47.542;19.090;2022-12-17T10:28:25;100483.19;;;0.74;70.12
75923;BME280;64602;47.542;19.090;2022-12-17T10:33:55;100491.00;;;0.60;70.33
75923;BME280;64602;47.542;19.090;2022-12-17T10:39:19;100491.28;;;0.80;70.37
75923;BME280;64602;47.542;19.090;2022-12-17T10:44:40;100493.19;;;1.38;69.01
75923;BME280;64602;47.542;19.090;2022-12-17T10:50:08;100508.13;;;0.96;69.49
75923;BME280;64602;47.542;19.090;2022-12-17T10:55:30;100531.38;;;1.89;67.60
75923;BME280;64602;47.542;19.090;2022-12-17T11:00:58;100541.13;;;4.58;58.57
75923;BME280;64602;47.542;19.090;2022-12-17T11:06:24;100566.91;;;13.32;38.60
75923;BME280;64602;47.542;19.090;2022-12-17T11:11:47;100579.47;;;14.42;31.78
75923;BME280;64602;47.542;19.090;2022-12-17T11:17:13;100593.63;;;14.34;33.13
75923;BME280;64602;47.542;19.090;2022-12-17T11:22:43;100574.94;;;7.21;46.21
75923;BME280;64602;47.542;19.090;2022-12-17T11:28:24;100586.72;;;7.75;46.97
75923;BME280;64602;47.542;19.090;2022-12-17T11:45:33;100598.47;;;8.41;42.51
75923;BME280;64602;47.542;19.090;2022-12-17T11:51:02;100598.66;;;6.18;48.88
75923;BME280;64602;47.542;19.090;2022-12-17T11:56:29;100610.37;;;4.82;53.09
75923;BME280;64602;47.542;19.090;2022-12-17T12:01:55;100596.09;;;3.40;57.96
75923;BME280;64602;47.542;19.090;2022-12-17T12:13:39;100649.25;;;4.60;55.12
75923;BME280;64602;47.542;19.090;2022-12-17T12:19:31;100652.28;;;2.36;60.80
75923;BME280;64602;47.542;19.090;2022-12-17T12:25:35;100654.34;;;1.61;64.75
75923;BME280;64602;47.542;19.090;2022-12-17T12:36:29;100649.53;;;0.82;67.46
75923;BME280;64602;47.542;19.090;2022-12-17T12:42:08;100669.62;;;0.78;67.38
75923;BME280;64602;47.542;19.090;2022-12-17T12:53:23;100668.03;;;0.69;68.68
75923;BME280;64602;47.542;19.090;2022-12-17T12:58:44;100687.91;;;0.67;68.94
75923;BME280;64602;47.542;19.090;2022-12-17T13:04:28;100700.47;;;0.66;69.06
75923;BME280;64602;47.542;19.090;2022-12-17T13:10:22;100698.13;;;0.63;69.41
75923;BME280;64602;47.542;19.090;2022-12-17T13:15:39;100683.53;;;0.51;69.54
75923;BME280;64602;47.542;19.090;2022-12-17T13:20:42;100729.53;;;0.61;69.45
75923;BME280;64602;47.542;19.090;2022-12-17T13:25:44;100724.06;;;0.54;69.03
75923;BME280;64602;47.542;19.090;2022-12-17T13:30:46;100749.56;;;0.80;68.51
75923;BME280;64602;47.542;19.090;2022-12-17T13:36:02;100763.31;;;0.77;68.53
75923;BME280;64602;47.542;19.090;2022-12-17T13:41:11;100764.06;;;0.85;68.39
75923;BME280;64602;47.542;19.090;2022-12-17T13:51:29;100785.72;;;0.68;68.61
75923;BME280;64602;47.542;19.090;2022-12-17T13:56:34;100795.84;;;0.80;68.64
75923;BME280;64602;47.542;19.090;2022-12-17T14:01:45;100783.13;;;0.82;68.40
75923;BME280;64602;47.542;19.090;2022-12-17T14:06:48;100790.25;;;0.67;69.11
75923;BME280;64602;47.542;19.090;2022-12-17T14:11:51;100795.47;;;0.60;69.29
75923;BME280;64602;47.542;19.090;2022-12-17T14:17:21;100786.69;;;0.52;69.56
75923;BME280;64602;47.542;19.090;2022-12-17T14:22:37;100797.62;;;0.34;70.52
75923;BME280;64602;47.542;19.090;2022-12-17T14:27:50;100823.75;;;0.07;70.92
75923;BME280;64602;47.542;19.090;2022-12-17T14:32:53;100834.81;;;-0.04;71.64
75923;BME280;64602;47.542;19.090;2022-12-17T14:37:55;100831.88;;;-0.26;72.10
75923;BME280;64602;47.542;19.090;2022-12-17T14:42:59;100865.72;;;-0.26;72.08
75923;BME280;64602;47.542;19.090;2022-12-17T14:48:02;100852.88;;;-0.39;72.62
75923;BME280;64602;47.542;19.090;2022-12-17T14:53:25;100879.56;;;-0.47;72.92
75923;BME280;64602;47.542;19.090;2022-12-17T14:58:28;100878.41;;;-0.45;73.22
75923;BME280;64602;47.542;19.090;2022-12-17T15:03:32;100893.91;;;-0.40;73.20
75923;BME280;64602;47.542;19.090;2022-12-17T15:08:38;100903.22;;;-0.44;72.87
75923;BME280;64602;47.542;19.090;2022-12-17T15:13:42;100916.06;;;-0.48;72.99
75923;BME280;64602;47.542;19.090;2022-12-17T15:18:44;100926.75;;;-0.56;73.33
75923;BME280;64602;47.542;19.090;2022-12-17T15:23:46;100923.72;;;-0.77;73.97
75923;BME280;64602;47.542;19.090;2022-12-17T15:28:49;100960.16;;;-0.78;74.12
75923;BME280;64602;47.542;19.090;2022-12-17T15:33:51;100955.00;;;-0.88;74.37
75923;BME280;64602;47.542;19.090;2022-12-17T15:38:53;100965.34;;;-0.84;74.28
75923;BME280;64602;47.542;19.090;2022-12-17T15:43:55;100983.50;;;-0.80;74.22
75923;BME280;64602;47.542;19.090;2022-12-17T15:48:57;100983.66;;;-0.90;74.53
75923;BME280;64602;47.542;19.090;2022-12-17T15:53:59;101002.09;;;-0.96;74.49
75923;BME280;64602;47.542;19.090;2022-12-17T15:59:01;101001.28;;;-0.97;74.55
75923;BME280;64602;47.542;19.090;2022-12-17T16:04:03;100994.25;;;-1.06;74.02
75923;BME280;64602;47.542;19.090;2022-12-17T16:09:12;100986.25;;;-1.06;73.96
75923;BME280;64602;47.542;19.090;2022-12-17T16:14:14;101009.75;;;-1.01;73.80
75923;BME280;64602;47.542;19.090;2022-12-17T16:19:16;101000.53;;;-1.15;73.95
75923;BME280;64602;47.542;19.090;2022-12-17T16:24:19;101022.19;;;-1.10;73.82
75923;BME280;64602;47.542;19.090;2022-12-17T16:29:21;101017.19;;;-1.13;74.05
75923;BME280;64602;47.542;19.090;2022-12-17T16:34:23;101010.16;;;-1.22;73.87
75923;BME280;64602;47.542;19.090;2022-12-17T16:39:26;101029.28;;;-1.27;74.02
75923;BME280;64602;47.542;19.090;2022-12-17T16:44:28;101042.56;;;-1.35;74.18
75923;BME280;64602;47.542;19.090;2022-12-17T16:49:30;101076.38;;;-1.27;74.30
75923;BME280;64602;47.542;19.090;2022-12-17T16:54:32;101066.16;;;-1.40;74.29
75923;BME280;64602;47.542;19.090;2022-12-17T16:59:34;101083.28;;;-1.43;74.44
75923;BME280;64602;47.542;19.090;2022-12-17T17:04:37;101090.25;;;-1.42;73.90
75923;BME280;64602;47.542;19.090;2022-12-17T17:09:40;101104.47;;;-1.33;74.43
75923;BME280;64602;47.542;19.090;2022-12-17T17:14:42;101108.94;;;-1.34;74.46
75923;BME280;64602;47.542;19.090;2022-12-17T17:19:45;101109.13;;;-1.35;74.27
75923;BME280;64602;47.542;19.090;2022-12-17T17:24:47;101131.09;;;-1.33;74.41
75923;BME280;64602;47.542;19.090;2022-12-17T17:29:49;101114.00;;;-1.48;74.76
75923;BME280;64602;47.542;19.090;2022-12-17T17:34:51;101140.00;;;-1.42;75.18
75923;BME280;64602;47.542;19.090;2022-12-17T17:39:53;101137.34;;;-1.42;75.50
75923;BME280;64602;47.542;19.090;2022-12-17T17:44:55;101152.13;;;-1.48;75.86
75923;BME280;64602;47.542;19.090;2022-12-17T17:49:57;101142.03;;;-1.62;76.10
75923;BME280;64602;47.542;19.090;2022-12-17T17:54:59;101147.25;;;-1.53;76.11
75923;BME280;64602;47.542;19.090;2022-12-17T18:00:02;101164.75;;;-1.50;76.14
75923;BME280;64602;47.542;19.090;2022-12-17T18:05:05;101157.91;;;-1.53;76.43
75923;BME280;64602;47.542;19.090;2022-12-17T18:10:07;101176.09;;;-1.48;76.74
75923;BME280;64602;47.542;19.090;2022-12-17T18:15:09;101166.13;;;-1.64;76.97
75923;BME280;64602;47.542;19.090;2022-12-17T18:20:18;101189.31;;;-1.56;76.87
75923;BME280;64602;47.542;19.090;2022-12-17T18:25:20;101193.50;;;-1.54;76.75
75923;BME280;64602;47.542;19.090;2022-12-17T18:30:22;101214.66;;;-1.52;77.13
75923;BME280;64602;47.542;19.090;2022-12-17T18:35:24;101230.37;;;-1.59;77.62
75923;BME280;64602;47.542;19.090;2022-12-17T18:40:26;101233.19;;;-1.60;78.17
75923;BME280;64602;47.542;19.090;2022-12-17T18:45:34;101224.75;;;-1.74;78.75
75923;BME280;64602;47.542;19.090;2022-12-17T18:50:39;101232.03;;;-1.76;79.05
75923;BME280;64602;47.542;19.090;2022-12-17T18:55:41;101248.91;;;-1.85;79.60
75923;BME280;64602;47.542;19.090;2022-12-17T19:00:43;101278.56;;;-1.80;79.78
75923;BME280;64602;47.542;19.090;2022-12-17T19:05:45;101271.03;;;-1.84;79.90
75923;BME280;64602;47.542;19.090;2022-12-17T19:10:54;101299.84;;;-1.80;79.88
75923;BME280;64602;47.542;19.090;2022-12-17T19:15:56;101296.66;;;-1.83;80.03
75923;BME280;64602;47.542;19.090;2022-12-17T19:20:59;101316.34;;;-1.76;79.88
75923;BME280;64602;47.542;19.090;2022-12-17T19:26:06;101312.09;;;-1.87;80.03
75923;BME280;64602;47.542;19.090;2022-12-17T19:31:08;101336.56;;;-1.83;79.90
75923;BME280;64602;47.542;19.090;2022-12-17T19:36:13;101332.41;;;-1.96;80.05
75923;BME280;64602;47.542;19.090;2022-12-17T19:41:17;101347.91;;;-1.81;79.86
75923;BME280;64602;47.542;19.090;2022-12-17T19:46:19;101366.25;;;-1.88;79.84
75923;BME280;64602;47.542;19.090;2022-12-17T19:51:23;101375.78;;;-1.85;79.64
75923;BME280;64602;47.542;19.090;2022-12-17T19:56:28;101377.03;;;-1.89;79.97
75923;BME280;64602;47.542;19.090;2022-12-17T20:01:32;101390.81;;;-1.94;80.37
75923;BME280;64602;47.542;19.090;2022-12-17T20:06:34;101397.66;;;-1.91;80.36
75923;BME280;64602;47.542;19.090;2022-12-17T20:11:36;101400.19;;;-2.00;80.36
75923;BME280;64602;47.542;19.090;2022-12-17T20:21:42;101401.22;;;-2.10;80.46
75923;BME280;64602;47.542;19.090;2022-12-17T20:26:47;101397.88;;;-2.22;80.51
75923;BME280;64602;47.542;19.090;2022-12-17T20:31:51;101415.63;;;-2.13;80.62
75923;BME280;64602;47.542;19.090;2022-12-17T20:36:54;101424.88;;;-2.17;80.63
75923;BME280;64602;47.542;19.090;2022-12-17T20:41:56;101429.75;;;-2.12;80.98
75923;BME280;64602;47.542;19.090;2022-12-17T20:46:58;101463.50;;;-2.13;81.01
75923;BME280;64602;47.542;19.090;2022-12-17T20:52:02;101466.88;;;-2.11;81.18
75923;BME280;64602;47.542;19.090;2022-12-17T20:57:04;101464.47;;;-2.14;81.16
75923;BME280;64602;47.542;19.090;2022-12-17T21:02:08;101467.44;;;-2.27;81.19
75923;BME280;64602;47.542;19.090;2022-12-17T21:07:10;101496.25;;;-2.22;81.53
75923;BME280;64602;47.542;19.090;2022-12-17T21:12:12;101495.00;;;-2.28;81.52
75923;BME280;64602;47.542;19.090;2022-12-17T21:17:15;101514.75;;;-2.30;81.66
75923;BME280;64602;47.542;19.090;2022-12-17T21:22:17;101541.47;;;-2.22;81.77
75923;BME280;64602;47.542;19.090;2022-12-17T21:27:19;101538.09;;;-2.34;81.72
75923;BME280;64602;47.542;19.090;2022-12-17T21:32:23;101541.87;;;-2.37;81.93
75923;BME280;64602;47.542;19.090;2022-12-17T21:37:34;101568.75;;;-2.30;81.83
75923;BME280;64602;47.542;19.090;2022-12-17T21:42:36;101577.56;;;-2.29;81.75
75923;BME280;64602;47.542;19.090;2022-12-17T21:47:58;101554.88;;;-2.43;81.80
75923;BME280;64602;47.542;19.090;2022-12-17T21:53:00;101568.34;;;-2.35;81.91
75923;BME280;64602;47.542;19.090;2022-12-17T21:58:03;101579.22;;;-2.38;81.96
75923;BME280;64602;47.542;19.090;2022-12-17T22:03:05;101567.75;;;-2.48;81.90
75923;BME280;64602;47.542;19.090;2022-12-17T22:08:07;101585.66;;;-2.41;81.96
75923;BME280;64602;47.542;19.090;2022-12-17T22:13:10;101590.97;;;-2.50;82.16
75923;BME280;64602;47.542;19.090;2022-12-17T22:18:31;101603.59;;;-2.43;82.10
75923;BME280;64602;47.542;19.090;2022-12-17T22:23:33;101603.13;;;-2.48;81.98
75923;BME280;64602;47.542;19.090;2022-12-17T22:28:36;101622.03;;;-2.51;82.19
75923;BME280;64602;47.542;19.090;2022-12-17T22:33:39;101619.53;;;-2.52;82.11
75923;BME280;64602;47.542;19.090;2022-12-17T22:39:04;101619.22;;;-2.59;82.39
75923;BME280;64602;47.542;19.090;2022-12-17T22:44:27;101638.22;;;-2.64;82.52
75923;BME280;64602;47.542;19.090;2022-12-17T22:49:49;101616.22;;;-2.75;82.56
75923;BME280;64602;47.542;19.090;2022-12-17T22:54:52;101641.78;;;-2.74;82.79
75923;BME280;64602;47.542;19.090;2022-12-17T22:59:55;101665.19;;;-2.68;82.74
75923;BME280;64602;47.542;19.090;2022-12-17T23:04:57;101654.91;;;-2.83;82.91
75923;BME280;64602;47.542;19.090;2022-12-17T23:09:59;101676.22;;;-2.73;82.93
75923;BME280;64602;47.542;19.090;2022-12-17T23:15:01;101672.81;;;-2.85;82.82
75923;BME280;64602;47.542;19.090;2022-12-17T23:20:04;101694.37;;;-2.78;82.80
75923;BME280;64602;47.542;19.090;2022-12-17T23:25:06;101678.56;;;-2.80;82.62
75923;BME280;64602;47.542;19.090;2022-12-17T23:30:09;101678.56;;;-2.80;82.44
75923;BME280;64602;47.542;19.090;2022-12-17T23:35:12;101708.09;;;-2.73;82.46
75923;BME280;64602;47.542;19.090;2022-12-17T23:40:15;101688.63;;;-2.83;82.48
75923;BME280;64602;47.542;19.090;2022-12-17T23:45:17;101705.50;;;-2.84;82.55
75923;BME280;64602;47.542;19.090;2022-12-17T23:50:19;101710.38;;;-2.89;82.58
75923;BME280;64602;47.542;19.090;2022-12-17T23:55:21;101723.56;;;-2.88;82.47
